createdAt,value
2019-04-21T14:02:30.883Z,10.72
2019-04-21T14:05:01.113Z,9.90
2019-04-21T14:07:30.308Z,9.88
2019-04-21T14:10:04.465Z,10.72
2019-04-21T14:12:29.740Z,11.10
2019-04-21T14:14:58.302Z,9.95
2019-04-21T14:17:27.296Z,9.53
2019-04-21T14:19:57.258Z,10.68
2019-04-21T14:22:26.684Z,10.95
2019-04-21T14:24:56.297Z,12.03
2019-04-21T14:27:25.961Z,10.75
2019-04-21T14:29:55.583Z,11.80
2019-04-21T14:32:26.422Z,10.90
2019-04-21T14:34:55.066Z,11.33
2019-04-21T14:37:24.724Z,11.48
2019-04-21T14:40:01.806Z,11.15
2019-04-21T14:42:24.524Z,10.40
2019-04-21T14:44:54.604Z,10.25
2019-04-21T14:47:37.989Z,10.68
2019-04-21T14:50:17.573Z,10.93
2019-04-21T14:52:48.642Z,11.57
2019-04-21T14:55:18.812Z,12.37
2019-04-21T14:57:47.515Z,12.05
2019-04-21T15:00:19.137Z,11.25
2019-04-21T15:02:48.034Z,12.60
2019-04-21T15:05:17.580Z,11.57
2019-04-21T15:07:46.621Z,11.50
2019-04-21T15:10:20.826Z,10.88
2019-04-21T15:12:46.032Z,10.43
2019-04-21T15:15:15.971Z,10.05
2019-04-21T15:17:46.180Z,11.00
2019-04-21T15:20:17.288Z,10.95
2019-04-21T15:22:46.261Z,10.78
2019-04-21T15:25:16.205Z,14.58
2019-04-21T15:27:45.146Z,10.60
2019-04-21T15:30:16.516Z,10.88
2019-04-21T15:32:46.486Z,10.58
2019-04-21T15:35:15.361Z,10.32
2019-04-21T15:37:44.498Z,11.00
2019-04-21T15:40:21.839Z,10.32
2019-04-21T15:42:44.321Z,10.17
2019-04-21T15:45:14.620Z,10.25
2019-04-21T15:47:44.183Z,9.98
2019-04-21T15:50:17.351Z,10.60
2019-04-21T15:52:45.702Z,11.10
2019-04-21T15:55:32.987Z,10.80
2019-04-21T15:58:22.853Z,10.58
2019-04-21T16:01:04.909Z,10.53
2019-04-21T16:03:34.475Z,11.12
2019-04-21T16:06:03.820Z,9.90
2019-04-21T16:08:33.350Z,9.80
2019-04-21T16:11:05.480Z,10.68
2019-04-21T16:13:34.005Z,9.73
2019-04-21T16:16:04.297Z,14.05
2019-04-21T16:18:34.232Z,19.12
2019-04-21T16:21:04.277Z,51.65
2019-04-21T16:23:33.094Z,109.97
2019-04-21T16:26:02.595Z,167.03
2019-04-21T16:28:31.303Z,199.20
2019-04-21T16:31:00.528Z,190.60
2019-04-21T16:33:31.290Z,209.67
2019-04-21T16:36:00.379Z,233.72
2019-04-21T16:38:29.311Z,265.02
2019-04-21T16:41:01.696Z,282.12
2019-04-21T16:43:29.119Z,305.30
2019-04-21T16:45:59.049Z,309.25
2019-04-21T16:48:28.304Z,323.10
2019-04-21T16:50:57.530Z,292.10
2019-04-21T16:53:35.412Z,283.23
2019-04-21T16:56:11.450Z,278.20
2019-04-21T16:58:44.974Z,297.42
2019-04-21T17:01:29.582Z,276.12
2019-04-21T17:03:58.427Z,257.90
2019-04-21T17:06:27.152Z,245.25
2019-04-21T17:08:56.788Z,313.82
2019-04-21T17:11:30.811Z,313.70
2019-04-21T17:13:56.967Z,263.45
2019-04-21T17:16:50.865Z,140.10
2019-04-21T17:19:05.318Z,138.15
2019-04-21T17:21:28.144Z,94.15
2019-04-21T17:23:56.863Z,81.10
2019-04-21T17:26:26.922Z,69.50
2019-04-21T17:28:56.631Z,55.43
2019-04-21T17:31:26.658Z,45.40
2019-04-21T17:34:02.029Z,47.73
2019-04-21T17:36:27.241Z,49.40
2019-04-21T17:38:55.929Z,41.20
2019-04-21T17:41:33.119Z,39.55
2019-04-21T17:43:56.186Z,39.00
2019-04-21T17:46:36.608Z,39.25
2019-04-21T17:48:56.780Z,30.20
2019-04-21T17:51:27.660Z,29.55
2019-04-21T17:54:13.560Z,36.38
2019-04-21T17:57:04.578Z,30.15
2019-04-21T17:59:41.448Z,29.30
2019-04-21T18:02:02.213Z,25.05
2019-04-21T18:04:33.483Z,26.95
2019-04-21T18:07:10.368Z,27.93
2019-04-21T18:09:51.750Z,23.00
2019-04-21T18:12:10.874Z,27.60
2019-04-21T18:14:26.809Z,25.27
2019-04-21T18:16:56.280Z,22.20
2019-04-21T18:19:28.706Z,19.62
2019-04-21T18:22:14.714Z,61.33
2019-04-21T18:24:52.766Z,61.23
2019-04-21T18:27:15.694Z,56.55
2019-04-21T18:29:46.495Z,55.95
2019-04-21T18:32:20.035Z,42.25
2019-04-21T18:34:55.199Z,42.17
2019-04-21T18:37:32.628Z,42.48
2019-04-21T18:40:05.706Z,43.10
2019-04-21T18:42:45.489Z,47.88
2019-04-21T18:47:51.018Z,44.65
2019-04-21T18:50:30.321Z,39.20
2019-04-21T18:53:30.334Z,38.88
2019-04-21T18:55:48.164Z,37.67
2019-04-21T18:58:15.534Z,38.53
2019-04-21T19:00:45.745Z,35.28
2019-04-21T19:03:19.900Z,32.15
2019-04-21T19:05:47.788Z,31.97
2019-04-21T19:08:30.630Z,30.23
2019-04-21T19:11:08.606Z,29.65
2019-04-21T19:13:44.399Z,29.67
2019-04-21T19:18:56.244Z,27.70
2019-04-21T19:21:07.457Z,26.35
2019-04-21T19:23:45.693Z,27.13
2019-04-21T19:26:17.307Z,25.50
2019-04-21T19:28:41.801Z,23.67
2019-04-21T19:31:11.072Z,26.50
2019-04-21T19:33:33.589Z,24.25
2019-04-21T19:35:50.334Z,26.90
2019-04-21T19:38:30.650Z,24.05
2019-04-21T19:41:02.008Z,24.80
2019-04-21T19:43:41.652Z,24.18
2019-04-21T19:46:09.649Z,22.73
2019-04-21T19:48:44.717Z,22.35
2019-04-21T19:51:10.566Z,21.30
2019-04-21T19:53:35.292Z,21.20
2019-04-21T19:55:52.072Z,20.30
2019-04-21T19:58:27.532Z,19.23
2019-04-21T20:00:55.565Z,19.90
2019-04-21T20:03:21.205Z,19.27
2019-04-21T20:06:00.187Z,19.20
2019-04-21T20:08:32.514Z,19.90
2019-04-21T20:11:11.837Z,17.77
2019-04-21T20:13:56.940Z,18.30
2019-04-21T20:16:12.887Z,18.12
2019-04-21T20:18:32.043Z,22.32
2019-04-21T20:20:52.166Z,17.07
2019-04-21T20:23:27.822Z,19.15
2019-04-21T20:25:56.913Z,19.82
2019-04-21T20:28:34.513Z,19.10
2019-04-21T20:31:12.826Z,19.23
2019-04-21T20:36:16.872Z,15.18
2019-04-21T20:38:33.957Z,17.17
2019-04-21T20:41:01.861Z,16.10
2019-04-21T20:43:44.112Z,16.50
2019-04-21T20:46:25.411Z,15.28
2019-04-21T20:48:37.195Z,15.83
2019-04-21T20:51:13.088Z,15.28
2019-04-21T20:53:42.596Z,14.47
2019-04-21T20:56:08.624Z,14.68
2019-04-21T20:58:39.708Z,15.15
2019-04-21T21:01:28.145Z,14.73
2019-04-21T21:03:43.250Z,13.70
2019-04-21T21:06:15.717Z,13.00
2019-04-21T21:08:45.086Z,14.38
2019-04-21T21:11:08.021Z,14.15
2019-04-21T21:13:47.870Z,16.02
2019-04-21T21:16:30.780Z,16.05
2019-04-21T21:21:15.106Z,13.75
2019-04-21T21:23:48.098Z,15.30
2019-04-21T21:26:21.782Z,15.13
2019-04-21T21:28:41.072Z,13.55
2019-04-21T21:31:13.255Z,14.65
2019-04-21T21:33:58.927Z,15.25
2019-04-21T21:36:33.880Z,12.37
2019-04-21T21:38:53.011Z,16.77
2019-04-21T21:41:11.859Z,15.13
2019-04-21T21:43:32.426Z,13.85
2019-04-21T21:46:04.876Z,13.18
2019-04-21T21:48:45.674Z,16.13
2019-04-21T21:51:10.768Z,14.07
2019-04-21T21:53:33.857Z,14.23
2019-04-21T21:56:02.766Z,12.28
2019-04-21T21:58:36.637Z,11.83
2019-04-21T22:01:06.437Z,12.07
2019-04-21T22:06:08.126Z,12.43
2019-04-21T22:08:34.370Z,11.30
2019-04-21T22:11:05.301Z,11.22
2019-04-21T22:13:43.580Z,11.20
2019-04-21T22:16:10.668Z,10.38
2019-04-21T22:18:55.094Z,10.70
2019-04-21T22:21:18.795Z,10.60
2019-04-21T22:23:47.825Z,12.40
2019-04-21T22:26:07.310Z,10.82
2019-04-21T22:28:36.202Z,12.23
2019-04-21T22:31:13.159Z,10.10
2019-04-21T22:33:44.931Z,10.00
2019-04-21T22:36:21.008Z,9.78
2019-04-21T22:38:47.749Z,10.43
2019-04-21T22:41:18.889Z,9.63
2019-04-21T22:46:07.655Z,10.00
2019-04-21T22:48:38.745Z,11.10
2019-04-21T22:51:18.805Z,10.28
2019-04-21T22:53:44.872Z,10.13
2019-04-21T22:56:14.853Z,9.77
2019-04-21T22:58:42.228Z,9.20
2019-04-21T23:01:11.033Z,9.60
2019-04-21T23:03:47.153Z,9.83
2019-04-21T23:06:16.205Z,9.25
2019-04-21T23:08:42.365Z,8.43
2019-04-21T23:11:12.473Z,8.45
2019-04-21T23:13:40.372Z,8.80
2019-04-21T23:16:09.875Z,9.30
2019-04-21T23:18:54.412Z,9.23
2019-04-21T23:23:57.439Z,8.70
2019-04-21T23:26:29.762Z,8.28
2019-04-21T23:28:58.561Z,9.28
2019-04-21T23:31:30.793Z,7.80
2019-04-21T23:33:40.434Z,8.45
2019-04-21T23:36:15.479Z,8.40
2019-04-21T23:38:44.162Z,8.65
2019-04-21T23:41:11.218Z,8.15
2019-04-21T23:43:40.507Z,8.00
2019-04-21T23:46:19.822Z,7.83
2019-04-21T23:48:57.892Z,8.13
2019-04-21T23:51:21.409Z,7.70
2019-04-21T23:53:41.607Z,7.80
2019-04-21T23:56:13.397Z,7.60
2019-04-21T23:58:44.880Z,7.73
